Disclaimer

Please do not use the information listed here in-flight or in-navigation, as they are not provided to us by the airports but are provided by volunteers, so they might be outdated.

Search


Regions


Airport information page

Radio informations:
Tower (TWR) - 118.6 MHz
Ground (GND) - 121.9 MHz
Clearance delivery - 121.8 MHz
Approach (APP) - 119.7 MHz

Airport informations:
Latitude: 17° 38' 41.12" S
Longitude: 063° 08' 07.31" W
Elevation: 1225 feet - 373 meters
Operating hours: N/A
Operating agency: Civil government, landing fees and diplomatic clearance may be required
Timezone: UTC-4
Fuel: Jet A1, without icing nhibitor.

Runway information:
16/34 - 11483 x 148 feet< - >3500 x 45 meters

Recent METARs:
SLVR 201900Z 12004KT 9999 FEW015 BKN020 BKN200 28/20 Q1011
SLVR 202000Z 10003KT 9999 FEW015 BKN020 BKN200 28/20 Q1010
SLVR 202000Z 10003KT 9999 FEW015 BKN020 BKN200 28/20 Q1010

Airport on the map: